METAR stanice u blizini

 

LYBE - Beograd / Surčin, Srbija
Ažurirano: 24/06/2018 22:00
Vedro
Vedro
 Pravac vetra ZSZ
Vetar: ZSZ 7 km/h
Temperatura: 16°C
Tačka rose: 10°C
Vlažnost: 68%
Pritisak: 1018 hPa
Pregled: Vedro
Vidljivost: greater than 10 km
2018/06/24 20:00 LYBE 242000Z 30004KT CAVOK 16/10 Q1018 NOSIG
LYBT - Beograd / Batajnica, Srbija
Ažurirano: 24/06/2018 22:00
Vedro
Vedro
 Pravac vetra Z
Vetar: Z 6 km/h
Temperatura: 14°C
Tačka rose: 11°C
Vlažnost: 82%
Pritisak: 1018 hPa
Pregled: Vedro
Vidljivost: greater than 10 km
2018/06/24 20:00 LYBT 242000Z 27003KT CAVOK 14/11 Q1018 NOSIG
LYVR - Vršac, Srbija
Ažurirano: 24/06/2018 22:00
Vedro
Vedro
 Pravac vetra calm
Vetar: Tišina
Temperatura: 13°C
Tačka rose: 12°C
Vlažnost: 94%
Pritisak: 1018 hPa
Pregled: Vedro
Vidljivost: greater than 10 km
2018/06/24 20:00 LYVR 242000Z 00000KT CAVOK 13/12 Q1018 NOSIG
 
LYKV - Lađevci, Srbija
Ažurirano: 24/06/2018 22:00
Vedro
Vedro
 Pravac vetra varies
Vetar: varies 4 km/h
Temperatura: 14°C
Tačka rose: 10°C
Vlažnost: 77%
Pritisak: 1018 hPa
Pregled: Vedro
Vidljivost: greater than 10 km
2018/06/24 20:00 LYKV 242000Z VRB02KT CAVOK 14/10 Q1018 NOSIG
LYNI - Niš, Srbija
Ažurirano: 24/06/2018 22:00
Few Clouds
Few Clouds
 Pravac vetra varies
Vetar: varies 4 km/h
Temperatura: 16°C
Tačka rose: 8°C
Vlažnost: 59%
Pritisak: 1018 hPa
Oblaci: Few Clouds
Vidljivost: 10 km
Cloud details: Few Clouds 1219 m
2018/06/24 20:00 LYNI 242000Z VRB02KT 9999 FEW040 16/08 Q1018 NOSIG
BKPR - Priština, Srbija
Ažurirano: 24/06/2018 22:00
Few Clouds
Few Clouds
 Pravac vetra S
Vetar: S 13 km/h
Temperatura: 13°C
Tačka rose: 5°C
Vlažnost: 59%
Pritisak: 1018 hPa
Oblaci: Few Clouds
Vidljivost: 10 km
Cloud details: Few Clouds 1829 m
2018/06/24 20:00 BKPR 242000Z 35007KT 9999 FEW060 13/05 Q1018 NOSIG
 
LHPP - Pecs / Pogany, Hungary
Ažurirano: 24/06/2018 18:45
NOT Current
Mostly Cloudy
Mostly Cloudy
 Pravac vetra SZ
Vetar: SZ 11 km/h
Temperatura: 19°C
Tačka rose: 8°C
Vlažnost: 49%
Pritisak: 1019 hPa
Oblaci: Mostly Cloudy
Vidljivost: 10 km
Cloud details: Few Clouds 1402 m
Mostly Cloudy 2530 m
2018/06/24 16:45 LHPP 241645Z 32006KT 9999 FEW046 BKN083 19/08 Q1019
LHUD - Szeged, Hungary
Ažurirano: 24/06/2018 21:45
Vedro
Vedro
 Pravac vetra varies
Vetar: varies 0 km/h
Pregled: Vedro
Vidljivost: greater than 10 km
2018/06/24 19:45 LHUD 241945Z /////KT CAVOK Q
LRTR - Timisoara, Romania
Ažurirano: 24/06/2018 22:00
Vedro
Vedro
 Pravac vetra Z
Vetar: Z 2 km/h
Temperatura: 15°C
Tačka rose: 12°C
Vlažnost: 82%
Pritisak: 1017 hPa
Pregled: Vedro
Vidljivost: greater than 10 km
2018/06/24 20:00 LRTR 242000Z 26001KT CAVOK 15/12 Q1017
 
LRCV - Craiova, Romania
Ažurirano: 24/06/2018 22:00
Vedro
Vedro
 Pravac vetra calm
Vetar: Tišina
Temperatura: 16°C
Tačka rose: 7°C
Vlažnost: 55%
Pritisak: 1017 hPa
Pregled: Vedro
Vidljivost: greater than 10 km
2018/06/24 20:00 LRCV 242000Z 00000KT CAVOK 16/07 Q1017
LBSF - Sofia, Bulgaria
Ažurirano: 24/06/2018 22:00
Partly Cloudy
Partly Cloudy
 Pravac vetra varies
Vetar: varies 7 km/h
Temperatura: 16°C
Tačka rose: 8°C
Vlažnost: 59%
Pritisak: 1018 hPa
Oblaci: Partly Cloudy
Vidljivost: 10 km
Cloud details: Partly Cloudy 1981 m
2018/06/24 20:00 LBSF 242000Z VRB04KT 9999 SCT065 16/08 Q1018 NOSIG
LWSK - Skoplje, Makedonija
Ažurirano: 24/06/2018 22:00
Partly Cloudy
Partly Cloudy
 Pravac vetra IJI
Vetar: IJI 4 km/h
Temperatura: 16°C
Tačka rose: 9°C
Vlažnost: 63%
Pritisak: 1017 hPa
Oblaci: Partly Cloudy
Vidljivost: 10 km
Cloud details: Partly Cloudy 2530 m
2018/06/24 20:00 LWSK 242000Z 12002KT 9999 SCT083 16/09 Q1017 NOSIG
 
LYPG - Podgorica, Crna Gora
Ažurirano: 24/06/2018 22:00
Few Clouds
Few Clouds
 Pravac vetra SSI
Vetar: SSI 17 km/h
Temperatura: 22°C
Tačka rose: 6°C
Vlažnost: 36%
Pritisak: 1014 hPa
Oblaci: Few Clouds
Vidljivost: 10 km
Cloud details: Few Clouds 1524 m
2018/06/24 20:00 LYPG 242000Z 02009KT 9999 FEW050 22/06 Q1014 NOSIG
LQSA - Sarajevo, Bosna i Hercegovina
Ažurirano: 24/06/2018 22:00
Partly Cloudy
Partly Cloudy
 Pravac vetra varies
Vetar: varies 4 km/h
Temperatura: 14°C
Tačka rose: 8°C
Vlažnost: 67%
Pritisak: 1018 hPa
Oblaci: Partly Cloudy
Vidljivost: 10 km
Cloud details: Partly Cloudy 1829 m
2018/06/24 20:00 LQSA 242000Z VRB02KT 9999 SCT060 14/08 Q1018 NOSIG
LDOS - Osijek, Hrvatksa
Ažurirano: 24/06/2018 22:00
Vedro
Vedro
 Pravac vetra calm
Vetar: Tišina
Temperatura: 16°C
Tačka rose: 13°C
Vlažnost: 83%
Pritisak: 1018 hPa
Pregled: Vedro
Vidljivost: greater than 10 km
2018/06/24 20:00 LDOS 242000Z 00000KT CAVOK 16/13 Q1018